createdAt,value
2022-10-31T00:00:01.122Z,16.38
2022-10-31T00:02:51.269Z,16.35
2022-10-31T00:05:43.533Z,16.15
2022-10-31T00:08:32.229Z,15.88
2022-10-31T00:11:20.857Z,16.02
2022-10-31T00:14:09.640Z,16.30
2022-10-31T00:16:58.384Z,15.68
2022-10-31T00:19:48.482Z,16.50
2022-10-31T00:22:37.245Z,16.45
2022-10-31T00:25:26.018Z,17.63
2022-10-31T00:28:14.655Z,16.13
2022-10-31T00:31:05.495Z,15.98
2022-10-31T00:33:54.422Z,16.52
2022-10-31T00:36:44.503Z,17.20
2022-10-31T00:39:35.728Z,16.65
2022-10-31T00:42:24.651Z,16.15
2022-10-31T00:45:13.731Z,16.92
2022-10-31T00:48:02.611Z,17.05
2022-10-31T00:50:51.753Z,16.73
2022-10-31T00:53:41.883Z,16.63
2022-10-31T00:56:30.702Z,16.20
2022-10-31T00:59:20.184Z,16.90
2022-10-31T01:02:09.126Z,15.57
2022-10-31T01:04:57.943Z,15.85
2022-10-31T01:07:46.618Z,15.52
2022-10-31T01:10:37.022Z,15.45
2022-10-31T01:13:25.945Z,15.07
2022-10-31T01:16:16.655Z,16.25
2022-10-31T01:19:05.466Z,15.43
2022-10-31T01:21:56.498Z,15.52
2022-10-31T01:24:45.231Z,14.50
2022-10-31T01:27:35.514Z,15.05
2022-10-31T01:30:24.581Z,15.52
2022-10-31T01:33:13.445Z,15.80
2022-10-31T01:36:02.197Z,15.88
2022-10-31T01:38:51.778Z,15.25
2022-10-31T01:41:43.374Z,15.55
2022-10-31T01:45:03.698Z,15.20
2022-10-31T01:47:52.574Z,15.63
2022-10-31T01:50:42.097Z,15.88
2022-10-31T01:53:30.825Z,15.88
2022-10-31T01:56:20.809Z,15.40
2022-10-31T01:59:14.769Z,16.30
2022-10-31T02:02:05.144Z,15.63
2022-10-31T02:04:55.462Z,15.40
2022-10-31T02:07:52.231Z,15.85
2022-10-31T02:10:42.360Z,17.83
2022-10-31T02:13:31.739Z,18.92
2022-10-31T02:16:20.454Z,19.25
2022-10-31T02:19:14.649Z,19.73
2022-10-31T02:22:11.701Z,20.30
2022-10-31T02:25:10.712Z,20.30
2022-10-31T02:28:23.639Z,19.70
2022-10-31T02:31:28.755Z,19.33
2022-10-31T02:34:23.568Z,20.02
2022-10-31T02:37:16.347Z,21.73
2022-10-31T02:40:12.746Z,22.05
2022-10-31T02:43:26.121Z,21.02
2022-10-31T02:46:21.515Z,22.52
2022-10-31T02:49:15.890Z,23.23
2022-10-31T02:52:04.764Z,23.13
2022-10-31T02:54:53.907Z,22.90
2022-10-31T02:57:44.933Z,23.55
2022-10-31T03:00:39.967Z,24.13
2022-10-31T03:03:38.970Z,24.35
2022-10-31T03:06:32.967Z,24.40
2022-10-31T03:09:26.991Z,24.38
2022-10-31T03:12:26.996Z,25.60
2022-10-31T03:15:23.501Z,25.63
2022-10-31T03:18:15.632Z,24.30
2022-10-31T03:21:10.602Z,25.52
2022-10-31T03:24:01.320Z,24.38
2022-10-31T03:26:54.743Z,24.38
2022-10-31T03:29:45.962Z,24.42
2022-10-31T03:32:40.369Z,25.27
2022-10-31T03:35:30.993Z,24.63
2022-10-31T03:38:22.352Z,25.23
2022-10-31T03:41:16.100Z,25.27
2022-10-31T03:44:12.225Z,23.92
2022-10-31T03:47:03.581Z,23.33
2022-10-31T03:49:52.956Z,24.50
2022-10-31T03:52:48.354Z,23.73
2022-10-31T03:55:43.630Z,23.95
2022-10-31T03:58:40.369Z,23.30
2022-10-31T04:01:33.767Z,23.15
2022-10-31T04:04:24.747Z,24.17
2022-10-31T04:07:15.013Z,22.98
2022-10-31T04:10:07.229Z,23.38
2022-10-31T04:13:02.744Z,23.70
2022-10-31T04:15:58.697Z,23.60
2022-10-31T04:18:47.857Z,24.38
2022-10-31T04:21:38.473Z,23.85
2022-10-31T04:24:27.288Z,23.63
2022-10-31T04:27:15.987Z,23.38
2022-10-31T04:30:07.910Z,25.08
2022-10-31T04:32:59.602Z,24.50
2022-10-31T04:35:48.696Z,23.75
2022-10-31T04:38:37.816Z,24.13
2022-10-31T04:41:34.052Z,24.33
2022-10-31T04:44:24.848Z,24.05
2022-10-31T04:47:16.901Z,24.33
2022-10-31T04:50:07.050Z,24.65
2022-10-31T04:52:58.225Z,24.08
2022-10-31T04:55:50.982Z,24.88
2022-10-31T04:58:42.501Z,24.90
2022-10-31T05:01:32.528Z,24.40
2022-10-31T05:04:24.492Z,24.35
2022-10-31T05:07:13.208Z,23.55
2022-10-31T05:10:02.063Z,23.33
2022-10-31T05:12:54.030Z,25.27
2022-10-31T05:16:06.040Z,24.08
2022-10-31T05:19:13.306Z,24.88
2022-10-31T05:22:23.498Z,23.88
2022-10-31T05:25:12.984Z,24.40
2022-10-31T05:28:01.767Z,23.13
2022-10-31T05:30:51.431Z,25.05
2022-10-31T05:33:40.120Z,24.25
2022-10-31T05:36:47.451Z,24.58
2022-10-31T05:39:42.660Z,24.20
2022-10-31T05:42:36.719Z,23.27
2022-10-31T05:45:26.489Z,23.73
2022-10-31T05:48:20.155Z,24.73
2022-10-31T05:51:27.559Z,24.92
2022-10-31T05:54:16.368Z,25.38
2022-10-31T05:57:09.302Z,24.80
2022-10-31T05:59:58.419Z,24.63
2022-10-31T06:02:47.347Z,26.73
2022-10-31T06:05:52.261Z,28.40
2022-10-31T06:08:45.671Z,29.60
2022-10-31T06:11:37.333Z,29.45
2022-10-31T06:14:27.477Z,29.33
2022-10-31T06:17:18.116Z,30.45
2022-10-31T06:20:29.760Z,31.30
2022-10-31T06:23:23.672Z,31.73
2022-10-31T06:26:17.875Z,31.92
2022-10-31T06:29:07.224Z,33.88
2022-10-31T06:32:17.927Z,32.92
2022-10-31T06:35:08.362Z,32.75
2022-10-31T06:37:58.436Z,32.60
2022-10-31T06:41:05.185Z,33.80
2022-10-31T06:44:10.081Z,32.85
2022-10-31T06:47:30.370Z,32.58
2022-10-31T06:50:19.031Z,33.10
2022-10-31T06:55:59.560Z,31.15
2022-10-31T06:58:48.695Z,28.35
2022-10-31T07:01:39.661Z,28.25
2022-10-31T07:04:30.715Z,35.13
2022-10-31T07:07:22.305Z,27.83
2022-10-31T07:13:26.471Z,23.95
2022-10-31T07:16:23.111Z,24.67
2022-10-31T07:19:12.132Z,23.08
2022-10-31T07:22:02.248Z,24.10
2022-10-31T07:24:52.232Z,25.05
2022-10-31T07:27:59.575Z,21.92
2022-10-31T07:30:52.758Z,22.40
2022-10-31T07:33:42.930Z,21.75
2022-10-31T07:36:50.019Z,24.00
2022-10-31T07:39:40.642Z,24.35
2022-10-31T07:42:30.040Z,27.27
2022-10-31T07:45:20.487Z,27.77
2022-10-31T07:48:47.051Z,28.05
2022-10-31T07:51:58.607Z,29.55
2022-10-31T07:55:08.825Z,28.20
2022-10-31T07:58:00.142Z,29.23
2022-10-31T08:00:50.548Z,27.25
2022-10-31T08:03:50.510Z,32.38
2022-10-31T08:06:58.005Z,30.00
2022-10-31T08:09:52.476Z,29.08
2022-10-31T08:12:45.810Z,26.98
2022-10-31T08:15:39.004Z,26.13
2022-10-31T08:18:27.722Z,26.58
2022-10-31T08:21:16.497Z,27.17
2022-10-31T08:24:07.728Z,26.48
2022-10-31T08:26:56.600Z,26.80
2022-10-31T08:29:46.720Z,27.60
2022-10-31T08:32:35.745Z,28.15
2022-10-31T08:35:53.614Z,26.75
2022-10-31T08:39:10.751Z,25.00
2022-10-31T08:42:01.246Z,24.33
2022-10-31T08:44:52.134Z,23.55
2022-10-31T08:47:43.746Z,22.73
2022-10-31T08:50:35.137Z,26.10
2022-10-31T08:53:24.247Z,24.98
2022-10-31T08:56:28.927Z,24.90
2022-10-31T08:59:17.776Z,24.58
2022-10-31T09:02:26.975Z,24.27
2022-10-31T09:05:21.200Z,24.38
2022-10-31T09:08:15.990Z,22.75
2022-10-31T09:11:07.598Z,23.08
2022-10-31T09:14:15.007Z,23.75
2022-10-31T09:17:34.189Z,22.35
2022-10-31T09:20:45.369Z,22.75
2022-10-31T09:23:34.544Z,23.13
2022-10-31T09:26:23.524Z,23.45
2022-10-31T09:29:20.952Z,21.92
2022-10-31T09:32:16.183Z,23.10
2022-10-31T09:38:00.755Z,22.23
2022-10-31T09:40:56.858Z,22.63
2022-10-31T09:43:52.729Z,23.30
2022-10-31T09:46:52.420Z,21.67
2022-10-31T09:49:58.407Z,22.73
2022-10-31T09:52:59.559Z,26.40
2022-10-31T09:55:51.236Z,26.08
2022-10-31T09:58:45.686Z,25.90
2022-10-31T10:01:42.583Z,27.52
2022-10-31T10:04:40.516Z,27.13
2022-10-31T10:07:51.962Z,28.90
2022-10-31T10:11:09.400Z,31.38
2022-10-31T10:14:32.999Z,31.92
2022-10-31T10:17:33.526Z,30.40
2022-10-31T10:20:32.722Z,31.73
2022-10-31T10:23:37.482Z,34.15
2022-10-31T10:29:35.586Z,33.92
2022-10-31T10:32:29.519Z,32.65
2022-10-31T10:35:25.682Z,31.00
2022-10-31T10:38:22.398Z,32.00
2022-10-31T10:41:18.370Z,29.83
2022-10-31T10:44:10.908Z,28.48
2022-10-31T10:47:20.233Z,26.67
2022-10-31T10:50:15.132Z,27.35
2022-10-31T10:53:22.210Z,25.40
2022-10-31T10:56:19.388Z,25.30
2022-10-31T10:59:13.037Z,24.27
2022-10-31T11:02:01.927Z,23.48
2022-10-31T11:04:54.005Z,22.70
2022-10-31T11:07:42.742Z,22.70
2022-10-31T11:10:32.146Z,22.17
2022-10-31T11:13:26.261Z,22.52
2022-10-31T11:16:17.177Z,20.92
2022-10-31T11:19:16.968Z,20.90
2022-10-31T11:22:09.783Z,20.83
2022-10-31T11:24:58.627Z,19.88
2022-10-31T11:27:47.611Z,19.73
2022-10-31T11:30:51.070Z,19.67
2022-10-31T11:33:42.959Z,19.67
2022-10-31T11:36:34.579Z,19.67
2022-10-31T11:39:26.248Z,19.08
2022-10-31T11:42:15.394Z,19.90
2022-10-31T11:45:08.619Z,19.48
2022-10-31T11:48:02.099Z,18.52
2022-10-31T11:50:53.784Z,19.65
2022-10-31T11:53:56.926Z,19.83
2022-10-31T11:56:48.870Z,20.73
2022-10-31T11:59:41.123Z,19.52
2022-10-31T12:02:30.284Z,20.30
2022-10-31T12:05:26.796Z,21.40
2022-10-31T12:08:16.381Z,20.63
2022-10-31T12:11:12.370Z,20.45
2022-10-31T12:14:11.000Z,22.73
2022-10-31T12:17:05.010Z,21.27
2022-10-31T12:20:04.734Z,21.98
2022-10-31T12:23:05.385Z,22.15
2022-10-31T12:25:58.956Z,21.88
2022-10-31T12:29:04.244Z,22.33
2022-10-31T12:32:04.944Z,23.27
2022-10-31T12:35:17.460Z,21.98
2022-10-31T12:38:30.593Z,21.17
2022-10-31T12:41:30.377Z,24.45
2022-10-31T12:44:47.411Z,26.00
2022-10-31T12:47:56.696Z,25.98
2022-10-31T12:50:58.441Z,26.65
2022-10-31T12:54:04.264Z,26.20
2022-10-31T12:57:01.626Z,26.70
2022-10-31T12:59:54.191Z,27.42
2022-10-31T13:02:48.756Z,28.33
2022-10-31T13:05:43.066Z,27.88
2022-10-31T13:08:37.378Z,28.60
2022-10-31T13:11:29.824Z,29.38
2022-10-31T13:14:26.345Z,29.25
2022-10-31T13:17:24.096Z,28.40
2022-10-31T13:20:23.991Z,28.67
2022-10-31T13:23:44.624Z,29.25
2022-10-31T13:26:40.230Z,28.20
2022-10-31T13:29:34.222Z,29.42
2022-10-31T13:32:22.963Z,29.38
2022-10-31T13:35:18.591Z,29.17
2022-10-31T13:38:24.534Z,30.38
2022-10-31T13:41:24.018Z,29.58
2022-10-31T13:44:17.953Z,29.45
2022-10-31T13:47:22.584Z,29.83
2022-10-31T13:50:23.209Z,31.40
2022-10-31T13:53:15.066Z,31.00
2022-10-31T13:56:24.472Z,29.70
2022-10-31T13:59:26.711Z,30.60
2022-10-31T14:02:18.857Z,30.40
2022-10-31T14:05:22.336Z,31.17
2022-10-31T14:08:24.215Z,31.90
2022-10-31T14:11:34.375Z,31.10
2022-10-31T14:14:35.598Z,30.88
2022-10-31T14:17:33.380Z,30.67
2022-10-31T14:20:36.358Z,32.15
2022-10-31T14:23:37.000Z,31.33
2022-10-31T14:26:53.111Z,32.58
2022-10-31T14:29:47.881Z,31.27
2022-10-31T14:32:39.228Z,32.05
2022-10-31T14:35:36.486Z,32.67
2022-10-31T14:38:38.903Z,31.27
2022-10-31T14:41:58.309Z,31.38
2022-10-31T14:45:03.984Z,30.40
2022-10-31T14:48:08.035Z,29.13
2022-10-31T14:50:58.920Z,28.77
2022-10-31T14:53:51.449Z,27.35
2022-10-31T14:56:53.308Z,27.30
2022-10-31T14:59:50.470Z,28.27
2022-10-31T15:02:48.921Z,30.55
2022-10-31T15:05:44.685Z,30.38
2022-10-31T15:08:39.909Z,30.77
2022-10-31T15:11:29.566Z,30.70
2022-10-31T15:14:25.910Z,31.75
2022-10-31T15:17:14.921Z,31.50
2022-10-31T15:20:06.810Z,32.05
2022-10-31T15:22:59.279Z,30.98
2022-10-31T15:25:48.794Z,30.20
2022-10-31T15:28:37.455Z,31.58
2022-10-31T15:31:26.572Z,31.67
2022-10-31T15:34:21.785Z,32.30
2022-10-31T15:37:14.793Z,31.73
2022-10-31T15:40:09.836Z,30.80
2022-10-31T15:43:01.042Z,33.80
2022-10-31T15:45:49.829Z,34.17
2022-10-31T15:48:39.483Z,33.45
2022-10-31T15:51:30.508Z,32.80
2022-10-31T15:54:20.703Z,34.08
2022-10-31T15:57:12.983Z,34.65
2022-10-31T16:00:01.813Z,34.50
2022-10-31T16:02:50.569Z,35.67
2022-10-31T16:05:41.754Z,38.05
2022-10-31T16:08:38.265Z,35.60
2022-10-31T16:11:35.263Z,35.28
2022-10-31T16:14:28.380Z,35.00
2022-10-31T16:17:19.243Z,35.67
2022-10-31T16:20:09.178Z,35.10
2022-10-31T16:23:00.008Z,35.78
2022-10-31T16:25:50.685Z,34.67
2022-10-31T16:28:42.295Z,36.00
2022-10-31T16:31:38.105Z,35.58
2022-10-31T16:34:27.254Z,34.85
2022-10-31T16:37:16.231Z,33.13
2022-10-31T16:40:05.725Z,34.65
2022-10-31T16:42:54.984Z,33.47
2022-10-31T16:45:48.358Z,33.80
2022-10-31T16:48:37.108Z,34.75
2022-10-31T16:51:26.042Z,34.55
2022-10-31T16:54:14.777Z,35.55
2022-10-31T16:57:06.170Z,35.83
2022-10-31T16:59:55.806Z,35.20
2022-10-31T17:02:47.315Z,36.28
2022-10-31T17:05:37.009Z,35.20
2022-10-31T17:08:26.306Z,36.90
2022-10-31T17:11:18.844Z,35.72
2022-10-31T17:14:07.576Z,36.75
2022-10-31T17:16:59.001Z,37.95
2022-10-31T17:19:49.049Z,37.20
2022-10-31T17:25:33.036Z,39.17
2022-10-31T17:28:21.738Z,37.28
2022-10-31T17:31:21.555Z,37.20
2022-10-31T17:34:10.642Z,37.42
2022-10-31T17:37:01.109Z,38.92
2022-10-31T17:39:49.828Z,36.88
2022-10-31T17:42:38.446Z,38.03
2022-10-31T17:45:28.319Z,38.42
2022-10-31T17:48:17.052Z,40.80
2022-10-31T17:51:07.652Z,41.85
2022-10-31T17:53:59.043Z,38.60
2022-10-31T17:56:47.681Z,37.13
2022-10-31T17:59:36.436Z,38.80
2022-10-31T18:02:25.391Z,36.53
2022-10-31T18:05:14.547Z,38.60
2022-10-31T18:08:04.348Z,38.10
2022-10-31T18:10:55.250Z,36.90
2022-10-31T18:13:44.030Z,37.38
2022-10-31T18:16:32.732Z,37.90
2022-10-31T18:19:21.407Z,34.00
2022-10-31T18:22:10.066Z,34.92
2022-10-31T18:25:02.001Z,34.15
2022-10-31T18:27:52.534Z,36.78
2022-10-31T18:30:42.372Z,34.28
2022-10-31T18:33:31.375Z,35.85
2022-10-31T18:36:20.060Z,33.83
2022-10-31T18:39:09.039Z,32.67
2022-10-31T18:41:58.266Z,29.17
2022-10-31T18:44:48.393Z,29.75
2022-10-31T18:47:37.095Z,30.58
2022-10-31T18:50:26.166Z,30.08
2022-10-31T18:53:14.861Z,29.38
2022-10-31T18:56:07.920Z,31.17
2022-10-31T18:58:56.651Z,28.92
2022-10-31T19:01:46.926Z,31.48
2022-10-31T19:04:35.623Z,31.67
2022-10-31T19:07:24.906Z,34.67
2022-10-31T19:10:13.755Z,34.92
2022-10-31T19:13:03.064Z,36.92
2022-10-31T19:15:51.912Z,36.65
2022-10-31T19:18:43.019Z,37.20
2022-10-31T19:21:32.568Z,36.85
2022-10-31T19:24:21.356Z,36.05
2022-10-31T19:27:11.154Z,36.22
2022-10-31T19:30:01.274Z,34.47
2022-10-31T19:32:50.025Z,34.80
2022-10-31T19:35:40.098Z,35.83
2022-10-31T19:38:29.810Z,37.63
2022-10-31T19:41:20.450Z,36.75
2022-10-31T19:44:11.914Z,36.45
2022-10-31T19:47:03.708Z,34.63
2022-10-31T19:49:52.492Z,34.00
2022-10-31T19:52:42.772Z,33.20
2022-10-31T19:55:31.600Z,31.70
2022-10-31T19:58:20.308Z,32.83
2022-10-31T20:01:10.160Z,32.17
2022-10-31T20:03:59.284Z,32.10
2022-10-31T20:06:48.348Z,30.33
2022-10-31T20:09:38.713Z,31.65
2022-10-31T20:12:27.416Z,31.88
2022-10-31T20:15:16.436Z,31.77
2022-10-31T20:18:05.284Z,30.85
2022-10-31T20:20:54.219Z,30.67
2022-10-31T20:23:43.553Z,31.33
2022-10-31T20:26:34.888Z,32.38
2022-10-31T20:29:23.638Z,31.20
2022-10-31T20:32:12.320Z,31.63
2022-10-31T20:35:00.984Z,31.73
2022-10-31T20:37:49.753Z,32.58
2022-10-31T20:40:38.779Z,31.90
2022-10-31T20:43:29.393Z,35.88
2022-10-31T20:46:19.775Z,33.58
2022-10-31T20:49:08.508Z,30.10
2022-10-31T20:51:57.372Z,30.70
2022-10-31T20:54:46.080Z,29.17
2022-10-31T20:57:34.804Z,29.98
2022-10-31T21:00:24.955Z,32.03
2022-10-31T21:03:13.647Z,30.27
2022-10-31T21:06:03.942Z,33.15
2022-10-31T21:08:54.037Z,30.80
2022-10-31T21:11:42.994Z,31.67
2022-10-31T21:14:31.677Z,30.90
2022-10-31T21:17:21.675Z,32.67
2022-10-31T21:20:11.351Z,33.30
2022-10-31T21:23:00.383Z,33.10
2022-10-31T21:25:49.291Z,33.53
2022-10-31T21:28:38.223Z,31.65
2022-10-31T21:31:28.399Z,31.48
2022-10-31T21:34:18.660Z,32.45
2022-10-31T21:37:07.557Z,29.05
2022-10-31T21:39:56.387Z,30.27
2022-10-31T21:42:45.010Z,30.85
2022-10-31T21:45:33.599Z,29.95
2022-10-31T21:48:22.400Z,29.45
2022-10-31T21:51:14.517Z,30.05
2022-10-31T21:54:21.014Z,30.50
2022-10-31T21:57:09.784Z,29.40
2022-10-31T21:59:58.878Z,30.48
2022-10-31T22:02:47.440Z,29.85
2022-10-31T22:05:36.204Z,28.90
2022-10-31T22:08:26.364Z,29.90
2022-10-31T22:11:16.577Z,31.35
2022-10-31T22:14:05.608Z,30.85
2022-10-31T22:16:54.328Z,30.70
2022-10-31T22:19:43.264Z,29.70
2022-10-31T22:22:31.940Z,29.33
2022-10-31T22:25:22.006Z,30.30
2022-10-31T22:28:10.738Z,30.73
2022-10-31T22:30:59.634Z,29.02
2022-10-31T22:33:49.039Z,28.10
2022-10-31T22:36:38.940Z,26.95
2022-10-31T22:39:27.585Z,26.67
2022-10-31T22:42:17.618Z,25.70
2022-10-31T22:45:07.059Z,26.13
2022-10-31T22:47:55.790Z,26.27
2022-10-31T22:50:44.406Z,26.52
2022-10-31T22:53:33.158Z,25.38
2022-10-31T22:56:24.474Z,25.30
2022-10-31T22:59:16.510Z,25.58
2022-10-31T23:02:08.506Z,25.90
2022-10-31T23:04:58.786Z,24.85
2022-10-31T23:07:47.651Z,26.25
2022-10-31T23:10:41.345Z,24.92
2022-10-31T23:13:47.624Z,25.52
2022-10-31T23:16:39.501Z,24.73
2022-10-31T23:19:29.837Z,25.67
2022-10-31T23:22:18.531Z,26.45
2022-10-31T23:25:07.659Z,25.85
2022-10-31T23:27:55.371Z,25.08
2022-10-31T23:30:46.762Z,25.80
2022-10-31T23:33:36.873Z,25.75
2022-10-31T23:36:25.782Z,24.73
2022-10-31T23:39:14.399Z,23.40
2022-10-31T23:42:04.499Z,24.58
2022-10-31T23:44:53.107Z,24.35
2022-10-31T23:47:43.445Z,24.92
2022-10-31T23:50:33.575Z,24.77
2022-10-31T23:53:22.341Z,23.50
2022-10-31T23:56:10.984Z,23.38
2022-10-31T23:58:59.712Z,23.90
